createdAt,value
2023-05-21T00:02:05.592Z,100829.34
2023-05-21T00:04:36.759Z,100815.16
2023-05-21T00:07:08.066Z,100815.53
2023-05-21T00:09:42.208Z,100808.06
2023-05-21T00:12:13.048Z,100826.72
2023-05-21T00:14:44.187Z,100839.19
2023-05-21T00:17:14.874Z,100848.75
2023-05-21T00:19:46.256Z,100852.06
2023-05-21T00:22:17.391Z,100845.81
2023-05-21T00:24:48.266Z,100844.94
2023-05-21T00:27:19.175Z,100854.94
2023-05-21T00:29:50.058Z,100850.31
2023-05-21T00:32:20.982Z,100832.38
2023-05-21T00:34:51.860Z,100839.84
2023-05-21T00:37:23.252Z,100845.56
2023-05-21T00:39:54.911Z,100853.50
2023-05-21T00:42:28.826Z,100857.56
2023-05-21T00:45:00.219Z,100850.31
2023-05-21T00:47:31.158Z,100853.38
2023-05-21T00:50:03.416Z,100862.13
2023-05-21T00:52:34.704Z,100867.91
2023-05-21T00:55:06.073Z,100854.75
2023-05-21T00:57:38.699Z,100858.25
2023-05-21T01:00:12.016Z,100869.38
2023-05-21T01:02:43.592Z,100858.81
2023-05-21T01:05:16.733Z,100866.75
2023-05-21T01:07:48.141Z,100863.34
2023-05-21T01:10:19.441Z,100860.63
2023-05-21T01:12:50.630Z,100857.41
2023-05-21T01:15:22.106Z,100861.56
2023-05-21T01:17:53.893Z,100778.19
2023-05-21T01:20:26.227Z,100854.31
2023-05-21T01:22:57.999Z,100865.63
2023-05-21T01:25:29.123Z,100848.97
2023-05-21T01:27:59.780Z,100868.03
2023-05-21T01:30:31.004Z,100853.41
2023-05-21T01:33:06.522Z,100858.38
2023-05-21T01:35:50.621Z,100862.75
2023-05-21T01:38:28.562Z,100859.59
2023-05-21T01:41:12.256Z,100793.31
2023-05-21T01:43:45.855Z,100852.16
2023-05-21T01:46:23.392Z,100782.81
2023-05-21T01:48:56.990Z,100863.63
2023-05-21T01:51:29.055Z,100857.03
2023-05-21T01:53:59.891Z,100880.75
2023-05-21T01:56:30.951Z,100864.00
2023-05-21T01:59:02.295Z,100867.66
2023-05-21T02:01:33.439Z,100846.16
2023-05-21T02:04:04.322Z,100874.31
2023-05-21T02:06:37.370Z,100837.41
2023-05-21T02:09:08.072Z,100875.28
2023-05-21T02:11:39.170Z,100885.88
2023-05-21T02:14:11.880Z,100874.59
2023-05-21T02:16:43.631Z,100879.94
2023-05-21T02:19:14.656Z,100883.72
2023-05-21T02:21:46.088Z,100858.63
2023-05-21T02:24:16.924Z,100881.38
2023-05-21T02:26:49.856Z,100892.84
2023-05-21T02:29:20.784Z,100885.72
2023-05-21T02:31:52.760Z,100885.72
2023-05-21T02:34:24.068Z,100895.09
2023-05-21T02:36:55.943Z,100895.81
2023-05-21T02:39:28.475Z,100890.97
2023-05-21T02:41:59.833Z,100863.47
2023-05-21T02:44:31.012Z,100903.28
2023-05-21T02:47:01.972Z,100899.06
2023-05-21T02:49:32.877Z,100920.31
2023-05-21T02:52:04.219Z,100910.63
2023-05-21T02:54:35.100Z,100903.91
2023-05-21T02:57:06.060Z,100911.38
2023-05-21T02:59:36.993Z,100899.22
2023-05-21T03:02:08.779Z,100875.09
2023-05-21T03:04:47.502Z,100899.06
2023-05-21T03:07:20.442Z,100893.19
2023-05-21T03:09:51.335Z,100895.22
2023-05-21T03:12:22.528Z,100892.25
2023-05-21T03:14:53.414Z,100881.38
2023-05-21T03:17:24.776Z,100889.66
2023-05-21T03:19:56.113Z,100865.69
2023-05-21T03:22:27.255Z,100873.13
2023-05-21T03:24:59.780Z,100862.00
2023-05-21T03:27:49.876Z,100850.91
2023-05-21T03:30:43.527Z,100836.00
2023-05-21T03:33:35.152Z,100836.84
2023-05-21T03:36:17.655Z,100826.31
2023-05-21T03:38:49.023Z,100817.31
2023-05-21T03:41:20.152Z,100805.03
2023-05-21T03:43:56.026Z,100796.28
2023-05-21T03:46:31.583Z,100794.38
2023-05-21T03:49:24.964Z,100801.47
2023-05-21T03:51:58.160Z,100798.75
2023-05-21T03:54:30.207Z,100792.38
2023-05-21T03:57:06.326Z,100817.31
2023-05-21T03:59:38.631Z,100819.47
2023-05-21T04:02:09.610Z,100790.28
2023-05-21T04:04:40.970Z,100808.59
2023-05-21T04:07:15.976Z,100812.34
2023-05-21T04:09:48.184Z,100818.13
2023-05-21T04:12:20.599Z,100829.41
2023-05-21T04:14:53.009Z,100816.13
2023-05-21T04:17:23.912Z,100806.44
2023-05-21T04:19:55.763Z,100795.22
2023-05-21T04:22:28.034Z,100781.84
2023-05-21T04:25:01.029Z,100788.22
2023-05-21T04:27:39.926Z,100792.00
2023-05-21T04:30:14.664Z,100819.19
2023-05-21T04:32:49.663Z,100860.81
2023-05-21T04:35:21.096Z,100877.38
2023-05-21T04:37:52.208Z,100883.03
2023-05-21T04:40:25.633Z,100868.03
2023-05-21T04:42:58.454Z,100891.69
2023-05-21T04:45:30.807Z,100899.00
2023-05-21T04:48:04.285Z,100903.38
2023-05-21T04:50:37.720Z,100901.13
2023-05-21T04:53:08.862Z,100911.78
2023-05-21T04:55:41.299Z,100907.28
2023-05-21T04:58:14.899Z,100950.31
2023-05-21T05:00:48.151Z,100948.66
2023-05-21T05:03:19.602Z,100961.06
2023-05-21T05:05:50.909Z,100933.50
2023-05-21T05:08:21.875Z,100939.78
2023-05-21T05:10:53.146Z,100907.41
2023-05-21T05:13:24.184Z,100906.78
2023-05-21T05:15:55.716Z,100911.41
2023-05-21T05:18:26.555Z,100907.03
2023-05-21T05:20:57.851Z,100904.59
2023-05-21T05:23:29.177Z,100916.16
2023-05-21T05:25:59.970Z,100925.16
2023-05-21T05:28:31.380Z,100936.63
2023-05-21T05:31:03.551Z,100964.72
2023-05-21T05:33:35.945Z,100980.00
2023-05-21T05:36:07.334Z,100988.63
2023-05-21T05:38:43.469Z,100989.69
2023-05-21T05:41:16.035Z,100993.22
2023-05-21T05:43:48.184Z,100972.47
2023-05-21T05:46:22.101Z,100943.97
2023-05-21T05:48:55.984Z,100961.88
2023-05-21T05:51:27.361Z,100959.09
2023-05-21T05:53:59.688Z,100932.88
2023-05-21T05:56:30.807Z,100911.31
2023-05-21T05:59:02.043Z,100921.13
2023-05-21T06:01:34.251Z,100886.91
2023-05-21T06:04:05.340Z,100900.00
2023-05-21T06:06:38.145Z,100900.28
2023-05-21T06:09:09.057Z,100895.75
2023-05-21T06:11:40.473Z,100887.50
2023-05-21T06:14:11.431Z,100910.84
2023-05-21T06:16:42.918Z,100937.75
2023-05-21T06:19:14.037Z,100918.00
2023-05-21T06:21:45.225Z,100900.06
2023-05-21T06:24:16.262Z,100892.69
2023-05-21T06:26:47.865Z,100875.63
2023-05-21T06:29:18.960Z,100881.66
2023-05-21T06:31:53.418Z,100876.94
2023-05-21T06:34:24.585Z,100882.34
2023-05-21T06:36:57.370Z,100876.56
2023-05-21T06:39:28.731Z,100883.66
2023-05-21T06:42:01.455Z,100879.50
2023-05-21T06:44:56.119Z,100836.13
2023-05-21T06:47:34.803Z,100862.44
2023-05-21T06:50:11.387Z,100866.84
2023-05-21T06:53:04.003Z,100851.72
2023-05-21T06:55:35.729Z,100869.16
2023-05-21T06:58:21.337Z,100868.13
2023-05-21T07:00:52.930Z,100861.66
2023-05-21T07:03:25.909Z,100848.78
2023-05-21T07:05:57.070Z,100851.72
2023-05-21T07:08:28.647Z,100847.38
2023-05-21T07:10:59.934Z,100851.38
2023-05-21T07:13:32.069Z,100826.81
2023-05-21T07:16:03.090Z,100835.75
2023-05-21T07:18:39.141Z,100830.13
2023-05-21T07:21:10.200Z,100833.00
2023-05-21T07:23:41.879Z,100846.25
2023-05-21T07:26:14.167Z,100856.16
2023-05-21T07:28:46.530Z,100851.94
2023-05-21T07:31:17.676Z,100866.38
2023-05-21T07:33:52.063Z,100877.56
2023-05-21T07:36:28.057Z,100877.50
2023-05-21T07:38:59.486Z,100880.19
2023-05-21T07:41:32.830Z,100879.53
2023-05-21T07:44:07.480Z,100873.25
2023-05-21T07:46:45.073Z,100860.53
2023-05-21T07:49:18.161Z,100873.78
2023-05-21T07:51:52.215Z,100862.50
2023-05-21T07:54:25.951Z,100858.13
2023-05-21T07:56:58.606Z,100855.13
2023-05-21T07:59:52.560Z,100838.88
2023-05-21T08:02:24.679Z,100813.50
2023-05-21T08:04:56.515Z,100813.47
2023-05-21T08:07:29.109Z,100809.22
2023-05-21T08:10:02.623Z,100793.78
2023-05-21T08:12:36.243Z,100782.59
2023-05-21T08:15:09.049Z,100776.72
2023-05-21T08:17:45.649Z,100785.00
2023-05-21T08:20:17.915Z,100782.91
2023-05-21T08:22:49.776Z,100786.06
2023-05-21T08:25:21.469Z,100788.78
2023-05-21T08:27:54.507Z,100771.75
2023-05-21T08:30:26.078Z,100786.06
2023-05-21T08:32:57.311Z,100789.16
2023-05-21T08:35:29.951Z,100784.63
2023-05-21T08:38:07.718Z,100783.34
2023-05-21T08:40:57.784Z,100781.47
2023-05-21T08:43:33.207Z,100789.50
2023-05-21T08:46:07.152Z,100782.44
2023-05-21T08:48:41.300Z,100777.47
2023-05-21T08:51:13.209Z,100777.84
2023-05-21T08:53:52.951Z,100785.78
2023-05-21T08:56:26.154Z,100743.06
2023-05-21T08:59:01.310Z,100716.19
2023-05-21T09:01:39.705Z,100779.06
2023-05-21T09:04:30.137Z,100766.19
2023-05-21T09:07:04.198Z,100765.72
2023-05-21T09:10:10.348Z,100764.91
2023-05-21T09:12:42.173Z,100734.56
2023-05-21T09:15:13.953Z,100752.19
2023-05-21T09:17:50.186Z,100745.47
2023-05-21T09:20:39.371Z,100733.22
2023-05-21T09:23:18.002Z,100727.56
2023-05-21T09:25:51.129Z,100733.59
2023-05-21T09:28:41.079Z,100745.47
2023-05-21T09:31:12.164Z,100732.56
2023-05-21T09:33:53.004Z,100727.19
2023-05-21T09:36:25.219Z,100734.44
2023-05-21T09:38:59.220Z,100721.94
2023-05-21T09:41:39.635Z,100724.00
2023-05-21T09:44:12.884Z,100719.03
2023-05-21T09:46:44.026Z,100721.94
2023-05-21T09:49:26.294Z,100714.69
2023-05-21T09:51:59.313Z,100716.53
2023-05-21T09:54:35.276Z,100725.25
2023-05-21T09:57:06.521Z,100708.66
2023-05-21T09:59:43.817Z,100716.94
2023-05-21T10:02:23.103Z,100732.94
2023-05-21T10:04:58.395Z,100729.00
2023-05-21T10:07:29.761Z,100735.50
2023-05-21T10:10:05.324Z,100716.66
2023-05-21T10:12:37.113Z,100732.38
2023-05-21T10:15:13.351Z,100655.78
2023-05-21T10:17:47.446Z,100740.59
2023-05-21T10:20:18.901Z,100723.59
2023-05-21T10:22:52.159Z,100752.66
2023-05-21T10:25:23.900Z,100759.28
2023-05-21T10:27:57.653Z,100758.47
2023-05-21T10:30:29.074Z,100760.47
2023-05-21T10:33:01.835Z,100767.09
2023-05-21T10:35:34.099Z,100776.88
2023-05-21T10:38:06.791Z,100688.06
2023-05-21T10:40:38.496Z,100770.88
2023-05-21T10:43:40.861Z,100775.34
2023-05-21T10:46:33.698Z,100793.66
2023-05-21T10:49:34.626Z,100789.72
2023-05-21T10:52:34.532Z,100753.53
2023-05-21T10:55:22.027Z,100799.16
2023-05-21T10:57:56.470Z,100804.13
2023-05-21T11:00:28.989Z,100732.53
2023-05-21T11:03:03.248Z,100725.31
2023-05-21T11:06:07.883Z,100733.44
2023-05-21T11:08:40.248Z,100826.56
2023-05-21T11:11:10.777Z,100829.84
2023-05-21T11:13:51.151Z,100836.44
2023-05-21T11:16:27.326Z,100843.09
2023-05-21T11:19:02.072Z,100861.00
2023-05-21T11:21:35.625Z,100852.28
2023-05-21T11:24:09.829Z,100755.91
2023-05-21T11:26:50.148Z,100854.84
2023-05-21T11:29:22.420Z,100861.28
2023-05-21T11:32:07.156Z,100776.91
2023-05-21T11:34:47.317Z,100867.75
2023-05-21T11:37:30.818Z,100871.53
2023-05-21T11:40:29.659Z,100847.13
2023-05-21T11:43:00.606Z,100871.81
2023-05-21T11:45:34.369Z,100726.47
2023-05-21T11:48:06.839Z,100884.47
2023-05-21T11:50:39.046Z,100887.00
2023-05-21T11:53:10.614Z,100885.00
2023-05-21T11:55:49.078Z,100887.88
2023-05-21T11:58:21.257Z,100791.00
2023-05-21T12:00:53.515Z,100821.50
2023-05-21T12:03:28.108Z,100889.59
2023-05-21T12:06:08.082Z,100896.44
2023-05-21T12:08:39.825Z,100905.16
2023-05-21T12:11:10.603Z,100910.84
2023-05-21T12:13:41.543Z,100902.88
2023-05-21T12:16:13.952Z,100922.56
2023-05-21T12:18:44.976Z,100915.47
2023-05-21T12:21:17.024Z,100920.44
2023-05-21T12:23:48.084Z,100921.66
2023-05-21T12:26:19.496Z,100920.41
2023-05-21T12:28:51.416Z,100874.16
2023-05-21T12:31:28.796Z,100944.06
2023-05-21T12:33:59.800Z,100950.69
2023-05-21T12:36:33.333Z,100953.81
2023-05-21T12:39:04.278Z,100962.53
2023-05-21T12:41:35.434Z,100953.97
2023-05-21T12:44:07.236Z,100919.34
2023-05-21T12:46:38.780Z,100959.56
2023-05-21T12:49:10.300Z,100942.19
2023-05-21T12:51:42.050Z,100981.00
2023-05-21T12:54:15.960Z,100967.94
2023-05-21T12:56:48.465Z,100980.81
2023-05-21T12:59:18.954Z,100991.41
2023-05-21T13:01:50.601Z,100986.91
2023-05-21T13:04:22.820Z,100987.53
2023-05-21T13:06:57.621Z,100988.34
2023-05-21T13:09:28.650Z,100983.78
2023-05-21T13:11:59.860Z,100986.31
2023-05-21T13:14:30.974Z,100992.94
2023-05-21T13:17:02.643Z,101004.19
2023-05-21T13:19:34.127Z,100963.50
2023-05-21T13:22:05.877Z,100991.22
2023-05-21T13:24:36.838Z,100979.72
2023-05-21T13:27:08.538Z,100992.03
2023-05-21T13:29:39.624Z,100993.78
2023-05-21T13:32:14.014Z,100989.63
2023-05-21T13:34:45.338Z,100990.91
2023-05-21T13:37:17.046Z,100970.63
2023-05-21T13:39:48.731Z,100994.97
2023-05-21T13:42:21.229Z,100989.38
2023-05-21T13:44:57.192Z,100966.94
2023-05-21T13:47:28.782Z,100988.34
2023-05-21T13:49:59.834Z,100984.81
2023-05-21T13:52:33.097Z,100989.22
2023-05-21T13:55:04.459Z,100948.50
2023-05-21T13:57:36.538Z,100987.16
2023-05-21T14:00:10.808Z,100978.00
2023-05-21T14:02:45.175Z,100833.81
2023-05-21T14:05:16.710Z,100993.66
2023-05-21T14:07:49.687Z,100999.47
2023-05-21T14:10:21.916Z,101006.53
2023-05-21T14:12:55.881Z,101005.72
2023-05-21T14:15:30.666Z,101001.78
2023-05-21T14:18:02.467Z,101000.28
2023-05-21T14:20:33.762Z,100997.00
2023-05-21T14:23:06.977Z,100995.94
2023-05-21T14:25:39.633Z,101008.81
2023-05-21T14:28:11.145Z,100983.69
2023-05-21T14:30:42.266Z,101001.53
2023-05-21T14:33:14.632Z,100992.84
2023-05-21T14:35:45.664Z,101000.31
2023-05-21T14:38:18.416Z,100986.19
2023-05-21T14:40:49.590Z,101001.56
2023-05-21T14:43:21.134Z,101001.97
2023-05-21T14:45:52.987Z,101004.88
2023-05-21T14:48:26.742Z,101003.59
2023-05-21T14:50:59.018Z,100995.94
2023-05-21T14:53:30.230Z,101005.72
2023-05-21T14:56:02.604Z,101010.28
2023-05-21T14:58:34.144Z,101011.94
2023-05-21T15:01:08.345Z,101001.53
2023-05-21T15:03:43.920Z,100944.53
2023-05-21T15:06:15.251Z,101006.72
2023-05-21T15:08:49.807Z,100997.38
2023-05-21T15:11:22.942Z,101017.97
2023-05-21T15:13:57.763Z,101025.00
2023-05-21T15:16:30.122Z,101004.19
2023-05-21T15:19:01.629Z,101010.25
2023-05-21T15:21:34.182Z,101025.63
2023-05-21T15:24:07.245Z,101019.56
2023-05-21T15:26:38.509Z,101017.94
2023-05-21T15:29:09.901Z,101007.47
2023-05-21T15:31:43.916Z,101015.22
2023-05-21T15:34:19.313Z,101014.19
2023-05-21T15:36:56.682Z,100999.44
2023-05-21T15:39:29.008Z,101007.31
2023-05-21T15:42:02.106Z,101008.78
2023-05-21T15:44:34.750Z,100997.16
2023-05-21T15:47:08.427Z,100992.72
2023-05-21T15:49:39.830Z,100992.72
2023-05-21T15:52:11.005Z,100987.75
2023-05-21T15:54:43.734Z,100986.34
2023-05-21T15:57:16.007Z,100962.63
2023-05-21T15:59:48.116Z,100995.28
2023-05-21T16:02:19.233Z,100985.69
2023-05-21T16:04:53.202Z,100985.69
2023-05-21T16:07:26.059Z,100990.22
2023-05-21T16:09:57.491Z,100965.28
2023-05-21T16:12:28.885Z,100973.81
2023-05-21T16:15:00.560Z,100975.25
2023-05-21T16:17:32.342Z,100969.63
2023-05-21T16:20:03.762Z,100971.09
2023-05-21T16:22:35.036Z,100960.06
2023-05-21T16:25:07.238Z,100961.31
2023-05-21T16:27:39.435Z,100961.13
2023-05-21T16:30:12.264Z,100965.88
2023-05-21T16:32:47.384Z,100960.66
2023-05-21T16:35:18.660Z,100959.84
2023-05-21T16:37:54.457Z,100872.47
2023-05-21T16:40:26.344Z,100954.03
2023-05-21T16:42:57.527Z,100955.25
2023-05-21T16:45:29.514Z,100929.06
2023-05-21T16:48:03.535Z,100939.88
2023-05-21T16:50:35.393Z,100937.38
2023-05-21T16:53:09.114Z,100916.78
2023-05-21T16:55:40.773Z,100946.94
2023-05-21T16:58:14.946Z,100954.63
2023-05-21T17:00:46.610Z,100933.59
2023-05-21T17:03:17.835Z,100943.41
2023-05-21T17:05:49.394Z,100944.41
2023-05-21T17:08:21.497Z,100928.22
2023-05-21T17:10:52.973Z,100935.69
2023-05-21T17:13:24.087Z,100909.06
2023-05-21T17:15:55.415Z,100934.41
2023-05-21T17:18:26.351Z,100941.47
2023-05-21T17:21:00.178Z,100914.22
2023-05-21T17:23:31.059Z,100862.44
2023-05-21T17:26:02.977Z,100924.63
2023-05-21T17:28:33.939Z,100907.16
2023-05-21T17:31:05.894Z,100919.03
2023-05-21T17:33:37.396Z,100920.06
2023-05-21T17:36:08.779Z,100894.47
2023-05-21T17:38:39.803Z,100907.78
2023-05-21T17:41:11.244Z,100928.16
2023-05-21T17:43:42.279Z,100922.31
2023-05-21T17:46:18.018Z,100924.38
2023-05-21T17:48:49.188Z,100923.16
2023-05-21T17:51:20.272Z,100923.16
2023-05-21T17:53:51.560Z,100910.72
2023-05-21T17:56:22.983Z,100884.50
2023-05-21T17:58:53.864Z,100900.75
2023-05-21T18:01:25.350Z,100893.25
2023-05-21T18:03:56.354Z,100900.97
2023-05-21T18:06:27.628Z,100864.56
2023-05-21T18:08:59.197Z,100884.97
2023-05-21T18:11:30.889Z,100882.88
2023-05-21T18:14:02.109Z,100869.19
2023-05-21T18:16:33.099Z,100859.19
2023-05-21T18:19:07.069Z,100834.72
2023-05-21T18:21:39.035Z,100836.56
2023-05-21T18:24:11.134Z,100833.66
2023-05-21T18:26:42.135Z,100844.69
2023-05-21T18:29:14.450Z,100826.22
2023-05-21T18:31:48.624Z,100826.81
2023-05-21T18:34:19.334Z,100836.59
2023-05-21T18:36:50.785Z,100829.69
2023-05-21T18:39:25.882Z,100791.44
2023-05-21T18:44:32.198Z,100834.06
2023-05-21T18:47:03.702Z,100823.88
2023-05-21T18:49:39.385Z,100848.19
2023-05-21T18:52:10.469Z,100852.94
2023-05-21T18:54:41.210Z,100853.34
2023-05-21T18:57:12.301Z,100860.22
2023-05-21T18:59:42.953Z,100852.50
2023-05-21T19:02:14.335Z,100842.97
2023-05-21T19:04:45.529Z,100847.75
2023-05-21T19:07:17.280Z,100844.22
2023-05-21T19:09:50.161Z,100798.50
2023-05-21T19:12:21.168Z,100825.13
2023-05-21T19:14:51.875Z,100833.44
2023-05-21T19:17:22.961Z,100832.19
2023-05-21T19:19:57.440Z,100831.16
2023-05-21T19:22:29.566Z,100842.56
2023-05-21T19:25:00.877Z,100837.59
2023-05-21T19:27:31.813Z,100826.81
2023-05-21T19:30:02.454Z,100831.56
2023-05-21T19:32:33.384Z,100826.56
2023-05-21T19:35:06.012Z,100832.19
2023-05-21T19:37:37.560Z,100832.38
2023-05-21T19:40:09.187Z,100824.47
2023-05-21T19:42:40.168Z,100817.44
2023-05-21T19:45:11.573Z,100818.91
2023-05-21T19:47:42.552Z,100806.41
2023-05-21T19:50:13.519Z,100815.38
2023-05-21T19:52:44.488Z,100757.16
2023-05-21T19:55:15.477Z,100802.31
2023-05-21T19:57:46.470Z,100787.28
2023-05-21T20:00:17.701Z,100787.31
2023-05-21T20:02:49.414Z,100803.97
2023-05-21T20:05:21.455Z,100798.56
2023-05-21T20:07:52.505Z,100789.84
2023-05-21T20:10:23.237Z,100795.22
2023-05-21T20:12:54.313Z,100799.59
2023-05-21T20:15:25.033Z,100810.59
2023-05-21T20:17:57.282Z,100809.13
2023-05-21T20:20:30.629Z,100815.56
2023-05-21T20:23:04.764Z,100799.53
2023-05-21T20:25:35.456Z,100812.22
2023-05-21T20:28:06.936Z,100820.94
2023-05-21T20:30:55.074Z,100742.31
2023-05-21T20:33:26.864Z,100820.94
2023-05-21T20:35:57.682Z,100819.28
2023-05-21T20:38:29.293Z,100816.38
2023-05-21T20:41:00.127Z,100815.97
2023-05-21T20:43:31.232Z,100818.00
2023-05-21T20:46:01.972Z,100800.56
2023-05-21T20:48:36.742Z,100803.44
2023-05-21T20:51:07.470Z,100796.81
2023-05-21T20:53:38.659Z,100801.97
2023-05-21T20:56:10.594Z,100823.41
2023-05-21T20:58:41.846Z,100791.38
2023-05-21T21:01:12.654Z,100822.78
2023-05-21T21:03:47.001Z,100807.38
2023-05-21T21:06:21.564Z,100812.75
2023-05-21T21:08:52.428Z,100807.59
2023-05-21T21:11:23.218Z,100800.72
2023-05-21T21:13:54.278Z,100808.41
2023-05-21T21:16:25.003Z,100811.34
2023-05-21T21:18:55.925Z,100814.69
2023-05-21T21:21:26.835Z,100813.41
2023-05-21T21:23:57.667Z,100806.97
2023-05-21T21:26:28.579Z,100805.09
2023-05-21T21:29:00.776Z,100788.91
2023-05-21T21:31:32.218Z,100803.03
2023-05-21T21:34:03.386Z,100793.84
2023-05-21T21:36:34.143Z,100812.97
2023-05-21T21:39:05.170Z,100803.44
2023-05-21T21:41:35.899Z,100809.66
2023-05-21T21:44:06.943Z,100807.13
2023-05-21T21:46:37.572Z,100801.31
2023-05-21T21:49:08.522Z,100806.28
2023-05-21T21:51:39.410Z,100798.44
2023-05-21T21:54:10.310Z,100808.38
2023-05-21T21:56:41.033Z,100802.97
2023-05-21T21:59:11.901Z,100808.75
2023-05-21T22:01:42.782Z,100806.69
2023-05-21T22:04:14.271Z,100811.44
2023-05-21T22:06:46.785Z,100812.50
2023-05-21T22:09:18.877Z,100806.22
2023-05-21T22:11:50.412Z,100778.97
2023-05-21T22:14:21.351Z,100814.72
2023-05-21T22:16:54.459Z,100823.44
2023-05-21T22:19:25.545Z,100814.88
2023-05-21T22:21:56.523Z,100834.22
2023-05-21T22:24:32.695Z,100834.22
2023-05-21T22:27:04.028Z,100816.50
2023-05-21T22:29:34.940Z,100818.59
2023-05-21T22:32:05.623Z,100841.00
2023-05-21T22:34:36.388Z,100848.03
2023-05-21T22:37:07.027Z,100826.84
2023-05-21T22:39:37.934Z,100840.16
2023-05-21T22:42:08.851Z,100850.13
2023-05-21T22:44:39.843Z,100852.19
2023-05-21T22:47:11.498Z,100850.53
2023-05-21T22:49:42.619Z,100842.19
2023-05-21T22:52:13.490Z,100843.03
2023-05-21T22:54:44.283Z,100853.00
2023-05-21T22:57:15.345Z,100851.53
2023-05-21T22:59:46.765Z,100872.06
2023-05-21T23:02:18.012Z,100869.13
2023-05-21T23:04:50.647Z,100875.44
2023-05-21T23:07:21.374Z,100881.75
2023-05-21T23:09:53.095Z,100878.91
2023-05-21T23:12:23.797Z,100867.75
2023-05-21T23:14:54.853Z,100890.47
2023-05-21T23:17:25.686Z,100896.09
2023-05-21T23:19:57.490Z,100887.03
2023-05-21T23:22:28.176Z,100893.88
2023-05-21T23:24:59.102Z,100898.69
2023-05-21T23:27:30.549Z,100903.69
2023-05-21T23:30:01.885Z,100902.28
2023-05-21T23:32:34.607Z,100899.19
2023-05-21T23:35:05.893Z,100905.03
2023-05-21T23:37:36.606Z,100924.97
2023-05-21T23:40:08.240Z,100925.59
2023-05-21T23:42:39.055Z,100924.16
2023-05-21T23:45:10.247Z,100934.34
2023-05-21T23:47:41.076Z,100935.84
2023-05-21T23:50:12.356Z,100932.75
2023-05-21T23:52:43.226Z,100928.19
2023-05-21T23:55:15.969Z,100944.81
2023-05-21T23:57:46.783Z,100928.81
